Time;durP1;ratioP1;P1;durP2;ratioP2;P2;SDS_P1;SDS_P2;PMS_P1;PMS_P2;Temp;Humidity;BMP_temperature;BMP_pressure;BME280_temperature;BME280_humidity;BME280_pressure;Samples;Min_cycle;Max_cycle;Signal;HPM_P1;HPM_P2
2021/06/12 00:00:36;;;;;;;5.93;5.22;;;20.90;81.70;;;;;;4990398;28;20036;-77
2021/06/12 00:03:04;;;;;;;7.50;5.32;;;21.00;81.00;;;;;;5009206;28;20105;-81
2021/06/12 00:05:30;;;;;;;5.95;5.15;;;21.00;80.50;;;;;;5014363;28;20034;-81
2021/06/12 00:07:56;;;;;;;8.70;5.63;;;21.00;80.30;;;;;;4994414;28;20046;-80
2021/06/12 00:10:36;;;;;;;9.30;5.60;;;21.00;80.40;;;;;;5004852;28;20122;-80
2021/06/12 00:13:03;;;;;;;7.03;5.25;;;21.00;80.30;;;;;;4997565;28;20514;-83
2021/06/12 00:15:29;;;;;;;6.78;5.43;;;21.00;80.40;;;;;;5014596;28;20041;-81
2021/06/12 00:17:55;;;;;;;5.93;4.97;;;21.00;79.90;;;;;;4998068;28;20033;-84
2021/06/12 00:20:28;;;;;;;5.63;5.00;;;21.00;79.80;;;;;;5014361;28;20026;-83
2021/06/12 00:22:55;;;;;;;7.30;5.10;;;21.00;79.50;;;;;;4983724;28;20019;-80
2021/06/12 00:25:26;;;;;;;7.47;5.28;;;20.90;79.60;;;;;;5010761;28;20038;-80
2021/06/12 00:27:54;;;;;;;;;;;20.90;79.60;;;;;;4983541;28;20021;-81
2021/06/12 00:30:20;;;;;;;7.45;5.18;;;20.90;79.60;;;;;;4997131;28;20370;-81
2021/06/12 00:32:45;;;;;;;6.03;4.88;;;20.90;79.40;;;;;;4996616;28;20203;-81
2021/06/12 00:35:12;;;;;;;6.57;4.85;;;20.90;79.10;;;;;;5014542;28;20058;-80
2021/06/12 00:37:39;;;;;;;5.80;5.13;;;20.80;79.60;;;;;;5013985;28;20026;-81
2021/06/12 00:40:10;;;;;;;8.68;5.65;;;20.80;79.70;;;;;;4996597;28;20494;-80
2021/06/12 00:42:39;;;;;;;10.52;5.60;;;20.80;80.00;;;;;;5014414;28;20034;-80
2021/06/12 00:45:13;;;;;;;6.55;5.57;;;20.80;80.70;;;;;;4996752;28;20132;-81
2021/06/12 00:47:39;;;;;;;7.82;6.00;;;20.80;81.10;;;;;;4996761;28;20026;-81
2021/06/12 00:50:07;;;;;;;7.35;5.75;;;20.90;81.40;;;;;;4997207;28;20029;-82
2021/06/12 00:52:33;;;;;;;7.75;5.85;;;20.90;82.00;;;;;;4996662;28;20022;-80
2021/06/12 00:54:59;;;;;;;9.52;5.88;;;20.80;81.60;;;;;;4997023;28;20121;-81
2021/06/12 00:57:25;;;;;;;6.35;5.55;;;20.80;82.00;;;;;;4996680;28;20065;-82
2021/06/12 00:59:51;;;;;;;6.35;5.60;;;20.80;82.20;;;;;;4996503;28;20026;-82
2021/06/12 01:02:17;;;;;;;6.75;5.40;;;20.80;81.90;;;;;;5014627;28;20036;-82
2021/06/12 01:04:42;;;;;;;7.53;5.63;;;20.80;80.70;;;;;;5013521;28;20105;-81
2021/06/12 01:07:08;;;;;;;7.40;5.78;;;20.90;80.10;;;;;;4998271;28;20069;-77
2021/06/12 01:09:33;;;;;;;5.72;5.10;;;21.00;79.50;;;;;;5001397;28;20466;-79
2021/06/12 01:12:26;;;;;;;7.57;5.63;;;21.00;78.80;;;;;;4990336;28;20019;-80
2021/06/12 01:14:58;;;;;;;6.53;5.53;;;20.90;78.60;;;;;;5002704;28;20466;-78
2021/06/12 01:17:33;;;;;;;8.75;6.13;;;20.90;78.60;;;;;;4995928;28;20076;-78
2021/06/12 01:20:50;;;;;;;5.75;5.13;;;20.90;78.60;;;;;;5003457;28;20521;-79
2021/06/12 01:23:45;;;;;;;6.28;5.13;;;20.90;78.50;;;;;;4950264;28;20068;-78
2021/06/12 01:26:22;;;;;;;9.38;5.75;;;20.80;78.50;;;;;;4972964;28;20046;-78
2021/06/12 01:29:25;;;;;;;6.97;5.18;;;20.80;78.70;;;;;;5006053;28;20049;-78
2021/06/12 01:31:52;;;;;;;7.25;5.68;;;20.70;78.80;;;;;;4979884;28;20068;-78
2021/06/12 01:34:20;;;;;;;8.25;6.35;;;20.70;78.90;;;;;;4987468;28;20434;-78
2021/06/12 01:36:47;;;;;;;9.82;5.53;;;20.70;78.70;;;;;;5000668;28;20247;-78
2021/06/12 01:39:13;;;;;;;6.78;5.38;;;20.70;78.60;;;;;;4995590;28;20048;-78
2021/06/12 01:41:41;;;;;;;6.60;5.55;;;20.70;78.50;;;;;;5008562;28;20495;-78
2021/06/12 01:44:09;;;;;;;7.53;5.30;;;20.70;78.40;;;;;;4988907;28;20088;-78
2021/06/12 01:46:37;;;;;;;6.70;5.60;;;20.70;78.30;;;;;;4997192;28;20115;-78
2021/06/12 01:49:03;;;;;;;6.25;5.15;;;20.70;78.40;;;;;;5014625;28;20030;-77
2021/06/12 01:51:29;;;;;;;6.95;5.80;;;20.60;78.40;;;;;;4978977;28;20057;-78
2021/06/12 01:53:57;;;;;;;7.85;5.68;;;20.60;78.50;;;;;;5021921;28;20018;-78
2021/06/12 01:56:26;;;;;;;6.43;5.72;;;20.60;78.90;;;;;;4985988;28;20030;-77
2021/06/12 01:58:53;;;;;;;6.78;5.97;;;20.50;79.10;;;;;;5008056;28;20025;-77
2021/06/12 02:01:22;;;;;;;9.30;6.60;;;20.50;79.30;;;;;;4996292;28;20026;-78
2021/06/12 02:03:48;;;;;;;9.15;6.40;;;20.60;79.20;;;;;;5028179;28;20371;-77
2021/06/12 02:06:16;;;;;;;6.82;5.88;;;20.60;79.00;;;;;;5021118;28;20033;-78
2021/06/12 02:08:44;;;;;;;6.97;5.45;;;20.70;79.00;;;;;;5020022;28;20108;-78
2021/06/12 02:11:13;;;;;;;8.30;5.82;;;20.70;79.00;;;;;;5028426;28;20025;-78
2021/06/12 02:13:40;;;;;;;7.25;5.90;;;20.60;78.90;;;;;;4997606;28;20022;-78
2021/06/12 02:16:07;;;;;;;8.88;6.45;;;20.60;79.00;;;;;;5025294;28;20030;-78
2021/06/12 02:18:33;;;;;;;6.18;5.57;;;20.60;78.90;;;;;;5022386;28;20026;-77
2021/06/12 02:21:00;;;;;;;7.22;6.07;;;20.60;78.70;;;;;;4999888;28;20383;-78
2021/06/12 02:23:29;;;;;;;8.25;6.30;;;20.60;78.80;;;;;;5024115;28;20025;-77
2021/06/12 02:25:55;;;;;;;11.73;6.30;;;20.60;78.80;;;;;;4989560;28;20041;-77
2021/06/12 02:28:23;;;;;;;7.22;6.07;;;20.60;79.00;;;;;;5001438;28;20026;-78
2021/06/12 02:30:54;;;;;;;8.80;6.40;;;20.50;79.10;;;;;;4998729;28;20026;-77
2021/06/12 02:33:21;;;;;;;;;;;20.60;79.10;;;;;;5005631;28;20027;-78
2021/06/12 02:35:46;;;;;;;9.13;6.43;;;20.50;79.30;;;;;;4976227;28;19956;-78
2021/06/12 02:38:12;;;;;;;6.72;6.03;;;20.50;79.30;;;;;;5004366;28;20038;-78
2021/06/12 02:40:38;;;;;;;7.20;6.43;;;20.50;79.40;;;;;;5000438;28;20486;-78
2021/06/12 02:43:04;;;;;;;7.57;6.38;;;20.50;79.60;;;;;;4981361;28;20026;-78
2021/06/12 02:45:30;;;;;;;7.88;6.20;;;20.50;79.70;;;;;;5008869;28;20038;-77
2021/06/12 02:47:59;;;;;;;9.50;6.45;;;20.40;79.90;;;;;;4983201;28;20418;-78
2021/06/12 02:50:30;;;;;;;9.88;6.43;;;20.40;80.00;;;;;;4989032;28;20049;-78
2021/06/12 02:53:03;;;;;;;8.20;6.53;;;20.50;80.00;;;;;;5016606;28;20017;-78
2021/06/12 02:55:31;;;;;;;7.03;5.95;;;20.40;80.20;;;;;;4999986;28;20496;-77
2021/06/12 02:57:58;;;;;;;9.90;6.80;;;20.40;80.40;;;;;;5029904;28;20028;-78
2021/06/12 03:00:24;;;;;;;8.43;6.30;;;20.40;80.50;;;;;;4992472;28;20030;-78
2021/06/12 03:02:51;;;;;;;9.10;6.32;;;20.40;80.50;;;;;;5009242;28;20108;-77
2021/06/12 03:05:28;;;;;;;8.38;6.90;;;20.40;80.70;;;;;;4999128;28;20030;-76
2021/06/12 03:07:58;;;;;;;8.27;6.68;;;20.40;80.90;;;;;;5011529;28;20123;-77
2021/06/12 03:10:29;;;;;;;8.93;6.50;;;20.40;80.70;;;;;;5015203;28;20485;-77
2021/06/12 03:12:56;;;;;;;8.55;6.90;;;20.40;80.90;;;;;;5015161;28;20502;-77
2021/06/12 03:15:23;;;;;;;11.07;6.70;;;20.40;80.80;;;;;;5013674;28;20368;-77
2021/06/12 03:17:50;;;;;;;11.50;6.72;;;20.40;80.90;;;;;;5013609;28;20076;-77
2021/06/12 03:20:18;;;;;;;9.50;6.80;;;20.30;80.80;;;;;;5016278;28;20116;-77
2021/06/12 03:22:48;;;;;;;10.32;6.97;;;20.40;80.80;;;;;;5014415;28;20057;-77
2021/06/12 03:25:15;;;;;;;10.23;6.93;;;20.40;80.80;;;;;;5014225;28;20044;-77
2021/06/12 03:27:44;;;;;;;10.13;7.18;;;20.40;80.70;;;;;;4998180;28;20072;-77
2021/06/12 03:30:11;;;;;;;10.65;6.80;;;20.40;80.60;;;;;;5014808;28;20026;-77
2021/06/12 03:32:37;;;;;;;9.18;6.88;;;20.30;80.60;;;;;;5013040;28;20026;-76
2021/06/12 03:35:04;;;;;;;10.38;6.80;;;20.30;80.60;;;;;;5013311;28;20034;-76
2021/06/12 03:37:34;;;;;;;9.27;6.60;;;20.30;80.50;;;;;;5014326;28;20481;-76
2021/06/12 03:40:00;;;;;;;10.10;6.53;;;20.30;80.30;;;;;;5014918;28;20030;-76
2021/06/12 03:42:27;;;;;;;8.85;6.82;;;20.20;80.50;;;;;;5014556;28;20030;-76
2021/06/12 03:44:55;;;;;;;9.35;6.15;;;20.20;80.20;;;;;;5014078;28;20034;-76
2021/06/12 03:47:23;;;;;;;9.23;6.00;;;20.20;80.10;;;;;;5013226;28;20446;-76
2021/06/12 03:49:50;;;;;;;8.77;6.30;;;20.20;79.80;;;;;;5012499;28;20535;-76
2021/06/12 03:52:16;;;;;;;7.10;6.30;;;20.20;79.60;;;;;;5018033;28;20498;-76
2021/06/12 03:54:42;;;;;;;10.25;5.80;;;20.20;79.90;;;;;;5013479;28;20068;-77
2021/06/12 03:57:08;;;;;;;9.55;6.15;;;20.20;79.80;;;;;;5014671;28;20030;-77
2021/06/12 03:59:33;;;;;;;8.50;6.25;;;20.20;79.60;;;;;;5014080;28;20437;-77
2021/06/12 04:02:00;;;;;;;8.05;6.07;;;20.20;79.50;;;;;;5014602;28;20026;-77
2021/06/12 04:04:27;;;;;;;6.40;5.47;;;20.20;79.50;;;;;;5015105;28;20033;-77
2021/06/12 04:06:53;;;;;;;9.55;6.10;;;20.10;79.70;;;;;;5014644;28;20030;-77
2021/06/12 04:09:19;;;;;;;6.05;5.45;;;20.10;80.00;;;;;;5015695;28;20054;-76
2021/06/12 04:11:44;;;;;;;9.52;5.82;;;20.20;79.80;;;;;;4992288;28;20419;-77
2021/06/12 04:14:10;;;;;;;8.07;6.13;;;20.10;79.80;;;;;;5009817;28;20100;-77
2021/06/12 04:16:37;;;;;;;7.68;6.05;;;20.10;79.90;;;;;;5022571;28;20030;-77
2021/06/12 04:19:03;;;;;;;8.82;6.30;;;20.10;80.10;;;;;;5028866;28;20092;-77
2021/06/12 04:21:29;;;;;;;7.60;5.70;;;20.10;80.30;;;;;;5017732;28;20455;-77
2021/06/12 04:23:55;;;;;;;7.50;5.93;;;20.10;80.40;;;;;;5008658;28;20109;-78
2021/06/12 04:26:20;;;;;;;12.93;5.78;;;20.00;80.40;;;;;;5005771;28;20044;-78
2021/06/12 04:28:46;;;;;;;9.00;5.72;;;20.10;80.50;;;;;;5000204;28;20250;-78
2021/06/12 04:31:12;;;;;;;7.38;5.47;;;20.10;80.70;;;;;;5025868;28;20029;-78
2021/06/12 04:33:37;;;;;;;7.50;5.20;;;20.10;80.60;;;;;;5017121;28;20447;-78
2021/06/12 04:36:04;;;;;;;6.65;5.57;;;20.00;80.70;;;;;;5027389;28;20030;-78
2021/06/12 04:38:30;;;;;;;7.55;5.50;;;20.00;80.50;;;;;;4985807;28;20120;-77
2021/06/12 04:40:55;;;;;;;7.40;5.65;;;20.10;80.50;;;;;;5004210;28;20514;-78
2021/06/12 04:43:21;;;;;;;7.30;5.30;;;20.00;80.80;;;;;;4998284;28;20371;-78
2021/06/12 04:45:47;;;;;;;8.13;5.43;;;20.00;81.00;;;;;;5029053;28;20358;-78
2021/06/12 04:48:12;;;;;;;7.10;5.55;;;20.00;81.00;;;;;;5021525;28;20057;-78
2021/06/12 04:50:39;;;;;;;6.30;5.40;;;20.10;81.00;;;;;;5001035;28;20084;-78
2021/06/12 04:53:07;;;;;;;6.80;5.50;;;20.00;80.90;;;;;;5027593;28;20647;-78
2021/06/12 04:55:33;;;;;;;5.07;4.50;;;20.10;81.00;;;;;;5016870;28;20055;-78
2021/06/12 04:57:59;;;;;;;6.90;5.18;;;20.10;80.90;;;;;;5027771;28;20018;-78
2021/06/12 05:00:25;;;;;;;6.32;4.95;;;20.10;81.10;;;;;;4987267;28;20653;-78
2021/06/12 05:02:50;;;;;;;6.70;4.90;;;20.10;81.20;;;;;;5002774;28;20036;-78
2021/06/12 05:05:16;;;;;;;5.55;4.97;;;20.10;81.40;;;;;;5016933;28;20416;-78
2021/06/12 05:07:42;;;;;;;5.75;4.90;;;20.20;81.30;;;;;;5022524;28;20022;-79
2021/06/12 05:10:09;;;;;;;7.78;4.78;;;20.10;81.30;;;;;;4989216;28;20026;-79
2021/06/12 05:12:36;;;;;;;6.15;5.03;;;20.20;82.00;;;;;;4992824;28;20027;-78
2021/06/12 05:15:02;;;;;;;7.50;4.80;;;20.20;81.60;;;;;;4989467;28;20117;-79
2021/06/12 05:17:29;;;;;;;6.88;4.85;;;20.20;81.60;;;;;;5009670;28;20073;-77
2021/06/12 05:19:55;;;;;;;6.18;4.75;;;20.20;81.80;;;;;;4982370;28;20370;-78
2021/06/12 05:22:25;;;;;;;5.32;4.35;;;20.20;82.20;;;;;;5003761;28;20026;-78
2021/06/12 05:24:52;;;;;;;5.95;4.35;;;20.20;82.20;;;;;;4982435;28;20471;-78
2021/06/12 05:27:18;;;;;;;5.72;4.50;;;20.20;82.30;;;;;;4991504;28;20076;-78
2021/06/12 05:29:45;;;;;;;4.68;3.72;;;20.20;82.40;;;;;;5008029;28;20030;-78
2021/06/12 05:32:10;;;;;;;5.03;4.53;;;20.20;82.40;;;;;;5013482;28;20026;-78
2021/06/12 05:34:36;;;;;;;7.35;4.18;;;20.20;82.40;;;;;;5023686;28;20085;-78
2021/06/12 05:37:02;;;;;;;5.82;4.07;;;20.20;82.40;;;;;;5017717;28;20115;-78
2021/06/12 05:39:28;;;;;;;5.63;4.07;;;20.30;82.60;;;;;;4990308;28;20117;-78
2021/06/12 05:41:54;;;;;;;5.10;3.90;;;20.30;82.80;;;;;;4989435;28;20118;-79
2021/06/12 05:44:19;;;;;;;5.07;3.88;;;20.30;82.70;;;;;;4981054;28;20518;-79
2021/06/12 05:46:45;;;;;;;5.55;4.13;;;20.30;82.70;;;;;;4982899;28;20447;-79
2021/06/12 05:49:10;;;;;;;5.03;3.63;;;20.40;83.00;;;;;;4984508;28;20113;-79
2021/06/12 05:51:36;;;;;;;6.38;4.18;;;20.40;83.10;;;;;;4994447;28;20071;-77
2021/06/12 05:54:02;;;;;;;5.80;3.90;;;20.40;82.50;;;;;;5005143;28;20030;-79
2021/06/12 05:56:27;;;;;;;5.40;3.92;;;20.50;82.30;;;;;;4991313;28;20077;-77
2021/06/12 05:58:53;;;;;;;4.20;3.70;;;20.50;82.40;;;;;;4993902;28;20105;-78
2021/06/12 06:01:19;;;;;;;4.40;3.83;;;20.50;82.20;;;;;;4978878;28;20399;-79
2021/06/12 06:03:44;;;;;;;4.07;3.67;;;20.50;81.90;;;;;;5006064;28;20026;-79
2021/06/12 06:06:10;;;;;;;4.93;3.38;;;20.60;82.20;;;;;;4979853;28;20479;-78
2021/06/12 06:08:36;;;;;;;5.82;3.88;;;20.60;82.40;;;;;;4996418;28;20133;-79
2021/06/12 06:11:04;;;;;;;4.97;3.72;;;20.60;82.10;;;;;;5012999;28;20137;-78
2021/06/12 06:13:36;;;;;;;11.63;3.65;;;20.60;82.20;;;;;;5011203;28;20030;-78
2021/06/12 06:16:02;;;;;;;7.22;3.67;;;20.70;82.50;;;;;;5011576;28;20084;-79
2021/06/12 06:18:27;;;;;;;3.97;3.15;;;20.80;82.30;;;;;;5011536;28;20030;-77
2021/06/12 06:20:53;;;;;;;3.45;2.92;;;20.80;82.30;;;;;;5013088;28;20096;-78
2021/06/12 06:23:19;;;;;;;5.95;3.17;;;20.90;81.80;;;;;;5016159;28;20068;-78
2021/06/12 06:25:45;;;;;;;3.90;2.80;;;20.90;81.50;;;;;;5011053;28;20072;-78
2021/06/12 06:28:11;;;;;;;3.70;3.03;;;20.90;81.60;;;;;;5011205;28;20032;-79
2021/06/12 06:30:36;;;;;;;5.45;3.55;;;21.00;81.50;;;;;;5011151;28;20026;-78
2021/06/12 06:33:02;;;;;;;3.97;3.10;;;21.00;81.60;;;;;;5011457;28;20036;-79
2021/06/12 06:35:28;;;;;;;5.68;2.92;;;21.10;81.70;;;;;;5010927;28;20026;-78
2021/06/12 06:37:54;;;;;;;5.00;2.75;;;21.20;81.40;;;;;;5011393;28;20430;-79
2021/06/12 06:40:19;;;;;;;5.72;2.78;;;21.20;81.50;;;;;;5010903;28;20026;-78
2021/06/12 06:42:45;;;;;;;3.75;3.00;;;21.30;81.30;;;;;;5011646;28;20413;-78
2021/06/12 06:45:12;;;;;;;4.68;2.90;;;21.40;81.30;;;;;;5010608;28;20376;-78
2021/06/12 06:47:37;;;;;;;4.47;3.17;;;21.40;81.50;;;;;;5010702;28;20068;-78
2021/06/12 06:50:07;;;;;;;5.50;3.08;;;21.50;80.50;;;;;;5012345;28;20104;-78
2021/06/12 06:52:33;;;;;;;4.72;3.22;;;21.50;81.00;;;;;;5008453;28;20022;-78
2021/06/12 06:54:59;;;;;;;4.10;2.70;;;21.40;80.90;;;;;;5012130;28;20033;-78
2021/06/12 06:57:25;;;;;;;5.07;3.03;;;21.40;81.40;;;;;;5011970;28;20049;-78
2021/06/12 06:59:51;;;;;;;3.10;2.60;;;21.40;81.20;;;;;;5010771;28;20029;-78
2021/06/12 07:02:17;;;;;;;4.47;2.85;;;21.40;81.80;;;;;;5010844;28;20034;-77
2021/06/12 07:04:43;;;;;;;3.95;2.45;;;21.30;81.70;;;;;;5011153;28;20030;-77
2021/06/12 07:07:09;;;;;;;3.85;2.53;;;21.40;81.90;;;;;;5010949;28;20030;-78
2021/06/12 07:09:35;;;;;;;8.10;3.00;;;21.40;82.00;;;;;;5030559;28;20068;-77
2021/06/12 07:12:01;;;;;;;4.40;2.40;;;21.40;81.80;;;;;;5021202;28;20025;-78
2021/06/12 07:14:28;;;;;;;2.75;2.40;;;21.40;81.60;;;;;;5007292;28;20360;-78
2021/06/12 07:16:54;;;;;;;3.08;2.40;;;21.40;81.30;;;;;;5007570;28;20034;-76
2021/06/12 07:19:22;;;;;;;2.50;2.15;;;21.40;81.10;;;;;;5031913;28;20037;-79
2021/06/12 07:21:49;;;;;;;2.40;2.13;;;21.50;81.40;;;;;;5026012;28;20558;-78
2021/06/12 07:24:15;;;;;;;4.78;2.85;;;21.40;81.50;;;;;;5031583;28;20090;-78
2021/06/12 07:26:42;;;;;;;4.03;2.28;;;21.40;81.10;;;;;;5027917;28;20037;-78
2021/06/12 07:29:10;;;;;;;2.88;2.30;;;21.50;81.50;;;;;;5012820;28;20091;-79
2021/06/12 07:31:40;;;;;;;3.58;2.10;;;21.50;81.10;;;;;;5019070;28;20040;-81
2021/06/12 07:34:07;;;;;;;5.00;2.70;;;21.50;81.30;;;;;;5032975;28;20044;-85
2021/06/12 07:36:33;;;;;;;3.88;2.50;;;21.60;80.90;;;;;;5010884;28;20036;-83
2021/06/12 07:38:59;;;;;;;3.80;2.72;;;21.60;81.00;;;;;;5024273;28;20034;-83
2021/06/12 07:41:25;;;;;;;5.00;2.63;;;21.70;81.50;;;;;;5018430;28;20038;-83
2021/06/12 07:43:50;;;;;;;4.53;2.67;;;21.70;81.30;;;;;;5017570;28;20021;-84
2021/06/12 07:46:16;;;;;;;4.82;2.67;;;21.70;81.20;;;;;;5035527;28;20390;-83
2021/06/12 07:48:42;;;;;;;2.85;2.22;;;21.70;82.00;;;;;;5020415;28;20092;-83
2021/06/12 07:51:08;;;;;;;4.10;2.67;;;21.80;81.70;;;;;;5028683;28;20026;-83
2021/06/12 07:53:34;;;;;;;3.90;2.50;;;21.80;81.20;;;;;;5013849;28;20037;-80
2021/06/12 07:56:00;;;;;;;3.55;2.30;;;21.90;81.20;;;;;;5011302;28;20036;-83
2021/06/12 07:58:25;;;;;;;4.97;2.60;;;21.90;81.20;;;;;;5029025;28;20037;-83
2021/06/12 08:00:51;;;;;;;5.25;3.00;;;22.00;80.70;;;;;;5016355;28;20052;-83
2021/06/12 08:03:17;;;;;;;3.58;2.60;;;22.00;80.80;;;;;;5022449;28;20381;-86
2021/06/12 08:05:43;;;;;;;2.88;2.67;;;22.00;80.80;;;;;;5025529;28;20060;-81
2021/06/12 08:08:08;;;;;;;5.38;3.10;;;22.10;81.10;;;;;;5022144;28;20483;-81
2021/06/12 08:10:34;;;;;;;3.15;2.78;;;22.10;81.00;;;;;;5009043;28;20083;-81
2021/06/12 08:13:00;;;;;;;3.85;2.85;;;22.20;80.90;;;;;;5002615;28;20459;-80
2021/06/12 08:15:26;;;;;;;3.15;2.85;;;22.30;80.00;;;;;;5002806;28;20478;-79
2021/06/12 08:17:52;;;;;;;3.10;2.70;;;22.50;80.40;;;;;;5011034;28;20022;-87
2021/06/12 08:20:17;;;;;;;5.30;3.80;;;22.60;79.70;;;;;;4997904;28;20160;-87
2021/06/12 08:22:43;;;;;;;4.88;2.53;;;22.70;79.50;;;;;;5030396;28;20378;-84
2021/06/12 08:25:09;;;;;;;3.25;2.85;;;22.80;79.60;;;;;;5014572;28;20648;-80
2021/06/12 08:27:37;;;;;;;4.82;3.75;;;22.90;79.40;;;;;;5014006;28;20037;-80
2021/06/12 08:30:04;;;;;;;4.25;3.38;;;22.90;79.00;;;;;;4994267;28;20105;-80
2021/06/12 08:32:30;;;;;;;4.38;3.22;;;23.00;79.10;;;;;;5002750;28;20238;-82
2021/06/12 08:34:56;;;;;;;4.93;2.78;;;23.10;78.60;;;;;;5002779;28;20112;-81
2021/06/12 08:37:22;;;;;;;4.82;2.90;;;23.20;78.20;;;;;;4996952;28;20022;-81
2021/06/12 08:39:47;;;;;;;5.18;3.30;;;23.30;78.10;;;;;;4996804;28;20298;-82
2021/06/12 08:42:13;;;;;;;5.20;3.08;;;23.40;77.40;;;;;;4996825;28;20120;-82
2021/06/12 08:44:43;;;;;;;4.22;3.10;;;23.50;76.70;;;;;;4996890;28;20074;-82
2021/06/12 08:47:09;;;;;;;5.55;3.50;;;23.50;77.00;;;;;;5014855;28;20076;-82
2021/06/12 08:49:35;;;;;;;5.97;3.63;;;23.50;76.50;;;;;;4997623;28;20041;-82
2021/06/12 08:52:00;;;;;;;4.53;3.38;;;23.40;76.30;;;;;;5017952;28;20022;-82
2021/06/12 08:54:27;;;;;;;4.30;3.28;;;23.40;76.20;;;;;;5014725;28;20029;-81
2021/06/12 08:56:53;;;;;;;4.53;3.20;;;23.50;77.40;;;;;;5014397;28;20049;-81
2021/06/12 08:59:19;;;;;;;4.30;2.70;;;23.50;77.20;;;;;;4997369;28;20119;-81
2021/06/12 09:01:45;;;;;;;4.60;3.40;;;23.40;77.10;;;;;;5013996;28;20025;-82
2021/06/12 09:04:24;;;;;;;3.53;2.60;;;23.40;77.30;;;;;;4990313;28;20062;-82
2021/06/12 09:07:11;;;;;;;3.83;2.85;;;23.50;77.60;;;;;;4990858;28;20117;-82
2021/06/12 09:09:41;;;;;;;3.80;2.47;;;23.50;77.90;;;;;;4992882;28;20507;-82
2021/06/12 09:12:07;;;;;;;5.45;2.40;;;23.70;77.70;;;;;;4991822;28;20033;-81
2021/06/12 09:14:33;;;;;;;3.08;2.53;;;23.80;76.80;;;;;;5002145;28;20030;-82
2021/06/12 09:16:58;;;;;;;3.92;2.92;;;23.80;76.40;;;;;;5010567;28;20021;-82
2021/06/12 09:19:24;;;;;;;3.55;2.53;;;23.80;75.10;;;;;;4998106;28;20048;-82
2021/06/12 09:21:57;;;;;;;2.72;2.40;;;23.80;76.30;;;;;;5029528;28;20022;-82
2021/06/12 09:24:29;;;;;;;4.20;2.47;;;23.80;76.10;;;;;;5003087;28;20109;-83
2021/06/12 09:27:02;;;;;;;2.80;2.50;;;23.80;76.20;;;;;;5010257;28;20052;-82
2021/06/12 09:29:35;;;;;;;4.30;2.78;;;23.80;75.50;;;;;;4998882;28;20077;-81
2021/06/12 09:32:01;;;;;;;3.72;2.92;;;23.90;75.80;;;;;;5006641;28;20082;-81
2021/06/12 09:34:27;;;;;;;4.07;2.70;;;23.90;73.80;;;;;;5005896;28;20025;-82
2021/06/12 09:36:52;;;;;;;5.82;2.30;;;23.90;73.80;;;;;;4998912;28;20026;-82
2021/06/12 09:39:21;;;;;;;4.35;2.50;;;23.90;73.50;;;;;;5012008;28;20033;-81
2021/06/12 09:41:52;;;;;;;6.45;2.60;;;24.00;73.30;;;;;;4991516;28;20046;-82
2021/06/12 09:44:38;;;;;;;2.42;2.03;;;24.00;73.00;;;;;;5011123;28;20486;-83
2021/06/12 09:47:11;;;;;;;3.75;2.42;;;24.10;71.70;;;;;;4997702;28;20126;-82
2021/06/12 09:49:38;;;;;;;5.15;2.20;;;24.20;71.80;;;;;;5012074;28;20026;-82
2021/06/12 09:52:12;;;;;;;4.00;2.20;;;24.30;72.10;;;;;;4989777;28;20030;-82
2021/06/12 09:54:44;;;;;;;3.95;2.47;;;24.40;72.10;;;;;;4998646;28;20052;-83
2021/06/12 09:57:12;;;;;;;3.45;2.08;;;24.50;71.10;;;;;;4996813;28;20073;-83
2021/06/12 09:59:42;;;;;;;3.45;2.10;;;24.50;71.50;;;;;;5011446;28;20477;-82
2021/06/12 10:02:08;;;;;;;2.30;2.10;;;24.50;72.30;;;;;;5020640;28;20112;-82
2021/06/12 10:04:34;;;;;;;2.97;1.98;;;24.50;71.30;;;;;;5001184;28;20041;-82
2021/06/12 10:07:00;;;;;;;3.63;2.28;;;24.50;70.90;;;;;;5022063;28;20026;-82
2021/06/12 10:09:26;;;;;;;2.63;2.10;;;24.50;70.90;;;;;;5012133;28;20085;-82
2021/06/12 10:11:54;;;;;;;2.20;1.80;;;24.50;71.20;;;;;;5012542;28;20050;-82
2021/06/12 10:14:20;;;;;;;2.20;1.95;;;24.50;70.70;;;;;;5022349;28;20025;-81
2021/06/12 10:16:47;;;;;;;4.13;2.33;;;24.60;71.20;;;;;;5011271;28;20037;-81
2021/06/12 10:19:19;;;;;;;2.88;2.22;;;24.70;71.10;;;;;;5015194;28;20029;-82
2021/06/12 10:21:46;;;;;;;;;;;24.90;70.10;;;;;;4999118;28;20029;-82
2021/06/12 10:24:12;;;;;;;3.33;2.10;;;24.90;70.10;;;;;;5003328;28;19905;-82
2021/06/12 10:26:38;;;;;;;3.90;2.30;;;25.00;70.90;;;;;;5011574;28;20052;-82
2021/06/12 10:29:04;;;;;;;4.63;2.20;;;25.20;68.90;;;;;;5015311;28;20022;-83
2021/06/12 10:31:34;;;;;;;3.70;2.38;;;25.30;68.40;;;;;;5032192;28;20026;-82
2021/06/12 10:34:01;;;;;;;2.78;2.30;;;25.40;68.60;;;;;;5032863;28;20467;-82
2021/06/12 10:36:30;;;;;;;3.28;1.85;;;25.50;66.90;;;;;;5005320;28;20030;-83
2021/06/12 10:38:57;;;;;;;2.88;1.80;;;25.50;67.20;;;;;;5009131;28;20087;-82
2021/06/12 10:41:26;;;;;;;1.73;1.60;;;25.60;64.80;;;;;;5016472;28;20033;-82
2021/06/12 10:43:58;;;;;;;1.95;1.83;;;25.60;64.50;;;;;;5010102;28;20013;-83
2021/06/12 10:46:28;;;;;;;2.05;1.73;;;25.70;63.50;;;;;;5004779;28;20422;-81
2021/06/12 10:49:05;;;;;;;2.72;1.70;;;25.70;63.40;;;;;;5001500;28;20110;-81
2021/06/12 10:51:31;;;;;;;1.85;1.60;;;25.80;61.70;;;;;;5028620;28;20029;-81
2021/06/12 10:54:09;;;;;;;1.55;1.23;;;25.80;61.00;;;;;;5001139;28;20071;-82
2021/06/12 10:56:43;;;;;;;3.35;1.58;;;25.80;60.50;;;;;;5011079;28;20026;-82
2021/06/12 10:59:10;;;;;;;1.98;1.80;;;25.90;61.20;;;;;;5028279;28;20090;-82
2021/06/12 11:01:36;;;;;;;1.73;1.42;;;25.90;61.20;;;;;;5032183;28;20072;-81
2021/06/12 11:09:14;;;;;;;2.60;1.60;;;25.90;60.50;;;;;;5036034;28;20053;-82
2021/06/12 11:11:47;;;;;;;2.40;1.50;;;26.10;60.60;;;;;;5000037;28;20033;-82
2021/06/12 11:14:21;;;;;;;1.42;1.27;;;26.20;60.20;;;;;;5000575;28;20471;-82
2021/06/12 11:19:45;;;;;;;2.25;1.48;;;26.20;60.40;;;;;;5035915;28;20036;-82
2021/06/12 11:22:30;;;;;;;3.35;1.55;;;26.30;62.40;;;;;;5036137;28;20029;-82
2021/06/12 11:25:10;;;;;;;2.28;1.45;;;26.40;59.20;;;;;;5003802;28;20035;-82
2021/06/12 11:27:44;;;;;;;1.52;1.00;;;26.50;59.30;;;;;;5031336;28;20133;-82
2021/06/12 11:30:14;;;;;;;1.30;1.20;;;26.60;59.20;;;;;;5008049;28;20081;-82
2021/06/12 11:32:42;;;;;;;1.27;1.05;;;26.60;57.80;;;;;;5011953;28;20494;-82
2021/06/12 11:35:08;;;;;;;2.35;1.20;;;26.60;58.60;;;;;;5010311;28;20033;-82
2021/06/12 11:37:34;;;;;;;1.30;1.10;;;26.60;59.30;;;;;;5032597;28;20064;-82
2021/06/12 11:40:04;;;;;;;1.05;0.95;;;26.70;57.10;;;;;;5011815;28;20034;-82
2021/06/12 11:42:44;;;;;;;1.20;0.90;;;26.70;56.70;;;;;;5004729;28;20382;-81
2021/06/12 11:45:16;;;;;;;1.58;1.00;;;26.80;55.70;;;;;;5014983;28;20030;-82
2021/06/12 11:47:42;;;;;;;1.50;1.10;;;26.90;55.30;;;;;;4999230;28;20049;-82
2021/06/12 11:50:08;;;;;;;2.35;1.10;;;26.90;57.40;;;;;;5007677;28;20034;-83
2021/06/12 11:52:42;;;;;;;4.07;1.23;;;26.90;56.20;;;;;;4990767;28;20056;-82
2021/06/12 11:55:39;;;;;;;2.65;1.00;;;27.00;54.20;;;;;;5022899;28;20094;-82
2021/06/12 11:58:04;;;;;;;1.02;0.80;;;27.00;52.20;;;;;;4991624;28;20030;-82
2021/06/12 12:00:33;;;;;;;1.15;0.80;;;27.10;53.60;;;;;;5002564;28;20344;-82
2021/06/12 12:03:06;;;;;;;1.55;0.95;;;27.20;51.90;;;;;;5014738;28;20176;-81
2021/06/12 12:05:34;;;;;;;1.98;1.10;;;27.20;53.60;;;;;;4990788;28;20041;-82
2021/06/12 12:08:02;;;;;;;1.20;0.82;;;27.10;52.70;;;;;;5008804;28;20045;-82
2021/06/12 12:10:29;;;;;;;2.28;0.77;;;27.10;53.00;;;;;;5025279;28;20033;-83
2021/06/12 12:12:55;;;;;;;0.90;0.77;;;27.10;52.80;;;;;;5028899;28;20025;-82
2021/06/12 12:15:37;;;;;;;2.47;0.73;;;27.10;52.30;;;;;;4998585;28;20140;-82
2021/06/12 12:18:05;;;;;;;1.25;0.50;;;26.90;51.30;;;;;;5010838;28;20049;-83
2021/06/12 12:20:49;;;;;;;0.90;0.70;;;26.90;51.80;;;;;;4997521;28;20030;-82
2021/06/12 12:23:21;;;;;;;1.33;0.70;;;27.00;51.90;;;;;;5015589;28;20025;-83
2021/06/12 12:25:47;;;;;;;0.70;0.70;;;27.10;52.10;;;;;;4982344;28;20052;-82
2021/06/12 12:28:20;;;;;;;0.60;0.60;;;27.20;52.00;;;;;;4989812;28;20037;-83
2021/06/12 12:30:47;;;;;;;1.65;0.60;;;27.30;50.90;;;;;;4989317;28;20117;-82
2021/06/12 12:33:20;;;;;;;1.15;0.52;;;27.40;49.40;;;;;;4981681;28;20352;-82
2021/06/12 12:35:47;;;;;;;0.77;0.43;;;27.40;49.00;;;;;;4978478;28;20029;-82
2021/06/12 12:38:19;;;;;;;0.65;0.63;;;27.40;48.30;;;;;;4989634;28;20034;-83
2021/06/12 12:40:46;;;;;;;0.73;0.60;;;27.60;48.50;;;;;;5002955;28;20033;-83
2021/06/12 12:43:13;;;;;;;1.38;0.50;;;27.80;48.40;;;;;;4999184;28;20023;-82
2021/06/12 12:45:41;;;;;;;1.67;0.40;;;27.90;48.40;;;;;;4993078;28;20115;-83
2021/06/12 12:48:08;;;;;;;1.38;0.57;;;27.80;46.90;;;;;;4996916;28;20030;-82
2021/06/12 12:50:34;;;;;;;2.47;0.43;;;27.60;48.00;;;;;;5003274;28;20026;-83
2021/06/12 12:53:17;;;;;;;0.75;0.63;;;27.60;47.00;;;;;;4988364;28;20030;-83
2021/06/12 12:55:53;;;;;;;0.60;0.40;;;27.50;47.40;;;;;;4980633;28;20028;-83
2021/06/12 12:58:27;;;;;;;1.50;0.50;;;27.40;47.10;;;;;;5005668;28;20034;-83
2021/06/12 13:01:04;;;;;;;0.60;0.50;;;27.50;47.60;;;;;;5002892;28;20022;-83